createdAt,value
2023-03-06T00:01:19.206Z,100186.66
2023-03-06T00:03:48.237Z,100184.31
2023-03-06T00:06:17.004Z,100183.10
2023-03-06T00:08:45.794Z,100182.79
2023-03-06T00:11:15.688Z,100186.90
2023-03-06T00:13:44.434Z,100182.41
2023-03-06T00:16:13.812Z,100185.73
2023-03-06T00:18:44.340Z,100187.52
2023-03-06T00:21:13.117Z,100187.10
2023-03-06T00:23:41.986Z,100187.41
2023-03-06T00:26:11.209Z,100190.16
2023-03-06T00:28:40.007Z,100192.19
2023-03-06T00:31:08.818Z,100193.70
2023-03-06T00:33:37.573Z,100195.61
2023-03-06T00:36:06.786Z,100195.27
2023-03-06T00:38:37.572Z,100197.59
2023-03-06T00:41:11.214Z,100195.54
2023-03-06T00:43:40.103Z,100198.15
2023-03-06T00:46:10.082Z,100199.85
2023-03-06T00:48:38.803Z,100201.65
2023-03-06T00:51:07.797Z,100197.93
2023-03-06T00:53:36.499Z,100194.94
2023-03-06T00:56:05.683Z,100197.34
2023-03-06T00:58:34.677Z,100199.80
2023-03-06T01:01:04.358Z,100194.52
2023-03-06T01:03:33.184Z,100202.30
2023-03-06T01:06:01.930Z,100199.98
2023-03-06T01:08:30.650Z,100204.94
2023-03-06T01:10:59.540Z,100201.82
2023-03-06T01:13:28.463Z,100206.35
2023-03-06T01:16:07.572Z,100204.66
2023-03-06T01:18:37.032Z,100204.64
2023-03-06T01:21:06.431Z,100204.13
2023-03-06T01:23:35.363Z,100205.52
2023-03-06T01:26:04.158Z,100203.86
2023-03-06T01:28:35.315Z,100198.54
2023-03-06T01:31:05.276Z,100194.89
2023-03-06T01:33:35.121Z,100194.31
2023-03-06T01:36:09.770Z,100189.88
2023-03-06T01:38:38.916Z,100190.92
2023-03-06T01:41:07.944Z,100191.08
2023-03-06T01:43:39.062Z,100188.81
2023-03-06T01:46:32.964Z,100190.98
2023-03-06T01:49:08.517Z,100189.58
2023-03-06T01:52:01.061Z,100194.56
2023-03-06T01:55:19.308Z,100191.14
2023-03-06T01:57:55.783Z,100197.19
2023-03-06T02:00:28.153Z,100197.75
2023-03-06T02:03:21.836Z,100199.29
2023-03-06T02:05:50.839Z,100199.00
2023-03-06T02:08:23.506Z,100201.14
2023-03-06T02:11:18.729Z,100200.98
2023-03-06T02:13:51.797Z,100201.13
2023-03-06T02:16:24.598Z,100202.64
2023-03-06T02:18:53.906Z,100208.55
2023-03-06T02:21:27.760Z,100210.69
2023-03-06T02:24:32.836Z,100206.77
2023-03-06T02:27:05.178Z,100204.77
2023-03-06T02:29:35.508Z,100205.31
2023-03-06T02:32:05.721Z,100206.60
2023-03-06T02:34:40.486Z,100204.49
2023-03-06T02:37:11.521Z,100211.06
2023-03-06T02:39:46.350Z,100214.35
2023-03-06T02:42:20.438Z,100215.61
2023-03-06T02:44:51.515Z,100215.81
2023-03-06T02:47:20.090Z,100218.33
2023-03-06T02:49:49.283Z,100218.68
2023-03-06T02:52:19.709Z,100223.83
2023-03-06T02:54:48.395Z,100231.37
2023-03-06T02:57:17.500Z,100226.77
2023-03-06T02:59:47.924Z,100231.41
2023-03-06T03:02:17.425Z,100231.36
2023-03-06T03:04:46.413Z,100229.35
2023-03-06T03:07:15.920Z,100233.00
2023-03-06T03:09:45.426Z,100230.04
2023-03-06T03:12:14.524Z,100231.64
2023-03-06T03:14:43.517Z,100231.72
2023-03-06T03:17:11.949Z,100231.39
2023-03-06T03:19:40.686Z,100237.64
2023-03-06T03:22:09.578Z,100235.89
2023-03-06T03:24:38.352Z,100238.78
2023-03-06T03:27:07.260Z,100239.06
2023-03-06T03:29:36.254Z,100239.65
2023-03-06T03:32:06.279Z,100238.77
2023-03-06T03:34:35.164Z,100245.47
2023-03-06T03:37:04.678Z,100248.26
2023-03-06T03:39:33.460Z,100247.23
2023-03-06T03:42:05.075Z,100252.70
2023-03-06T03:44:33.799Z,100255.41
2023-03-06T03:47:03.059Z,100257.38
2023-03-06T03:49:32.273Z,100259.28
2023-03-06T03:52:01.091Z,100259.86
2023-03-06T03:54:31.513Z,100263.71
2023-03-06T03:57:00.482Z,100264.52
2023-03-06T03:59:32.672Z,100265.91
2023-03-06T04:02:34.171Z,100263.51
2023-03-06T04:05:11.632Z,100267.20
2023-03-06T04:07:41.282Z,100267.96
2023-03-06T04:10:12.416Z,100269.98
2023-03-06T04:12:41.573Z,100267.73
2023-03-06T04:15:12.410Z,100267.10
2023-03-06T04:17:41.399Z,100266.88
2023-03-06T04:20:14.741Z,100267.80
2023-03-06T04:22:43.383Z,100264.08
2023-03-06T04:25:12.478Z,100268.35
2023-03-06T04:27:42.598Z,100266.20
2023-03-06T04:30:12.719Z,100262.65
2023-03-06T04:32:41.981Z,100267.81
2023-03-06T04:35:12.417Z,100267.53
2023-03-06T04:37:49.020Z,100268.84
2023-03-06T04:40:24.897Z,100270.58
2023-03-06T04:42:53.984Z,100271.88
2023-03-06T04:45:22.997Z,100272.22
2023-03-06T04:47:52.327Z,100269.98
2023-03-06T04:50:21.465Z,100271.55
2023-03-06T04:52:50.765Z,100271.34
2023-03-06T04:55:20.373Z,100270.21
2023-03-06T04:57:49.997Z,100271.39
2023-03-06T05:00:25.300Z,100270.81
2023-03-06T05:02:53.826Z,100270.62
2023-03-06T05:05:22.597Z,100273.20
2023-03-06T05:07:51.480Z,100273.05
2023-03-06T05:10:20.579Z,100271.04
2023-03-06T05:12:49.469Z,100273.09
2023-03-06T05:15:18.230Z,100274.64
2023-03-06T05:17:47.888Z,100274.66
2023-03-06T05:20:17.378Z,100274.32
2023-03-06T05:22:46.055Z,100273.46
2023-03-06T05:25:14.644Z,100269.90
2023-03-06T05:27:43.942Z,100271.62
2023-03-06T05:30:14.649Z,100273.64
2023-03-06T05:32:43.711Z,100272.14
2023-03-06T05:35:21.406Z,100282.37
2023-03-06T05:37:50.459Z,100285.70
2023-03-06T05:40:19.663Z,100291.42
2023-03-06T05:42:48.672Z,100295.10
2023-03-06T05:45:17.517Z,100298.23
2023-03-06T05:47:46.646Z,100296.77
2023-03-06T05:50:15.436Z,100302.71
2023-03-06T05:52:44.017Z,100304.16
2023-03-06T05:55:13.128Z,100302.40
2023-03-06T05:57:41.803Z,100306.88
2023-03-06T06:00:11.619Z,100309.36
2023-03-06T06:02:44.071Z,100310.45
2023-03-06T06:05:13.693Z,100308.74
2023-03-06T06:07:42.482Z,100310.55
2023-03-06T06:10:11.969Z,100313.81
2023-03-06T06:12:40.683Z,100318.80
2023-03-06T06:15:09.463Z,100323.44
2023-03-06T06:17:38.274Z,100325.36
2023-03-06T06:20:07.988Z,100330.73
2023-03-06T06:22:40.853Z,100330.33
2023-03-06T06:25:10.253Z,100338.23
2023-03-06T06:27:39.040Z,100341.12
2023-03-06T06:30:09.332Z,100347.95
2023-03-06T06:32:38.516Z,100349.10
2023-03-06T06:35:07.774Z,100353.82
2023-03-06T06:37:36.413Z,100357.15
2023-03-06T06:40:06.134Z,100363.91
2023-03-06T06:42:39.830Z,100366.09
2023-03-06T06:45:11.212Z,100373.02
2023-03-06T06:47:43.694Z,100371.42
2023-03-06T06:50:14.238Z,100368.40
2023-03-06T06:52:43.120Z,100374.00
2023-03-06T06:55:12.823Z,100373.02
2023-03-06T06:57:42.718Z,100374.80
2023-03-06T07:00:14.928Z,100379.52
2023-03-06T07:02:43.904Z,100393.34
2023-03-06T07:05:12.589Z,100392.22
2023-03-06T07:07:41.183Z,100398.30
2023-03-06T07:10:16.312Z,100403.45
2023-03-06T07:12:44.895Z,100405.35
2023-03-06T07:15:15.952Z,100410.54
2023-03-06T07:17:44.653Z,100408.98
2023-03-06T07:20:13.319Z,100406.55
2023-03-06T07:22:50.992Z,100408.89
2023-03-06T07:25:21.346Z,100403.94
2023-03-06T07:27:54.586Z,100410.64
2023-03-06T07:30:24.238Z,100415.96
2023-03-06T07:32:55.368Z,100414.89
2023-03-06T07:35:25.470Z,100417.92
2023-03-06T07:37:55.009Z,100414.02
2023-03-06T07:40:24.173Z,100419.69
2023-03-06T07:43:09.110Z,100417.03
2023-03-06T07:45:47.106Z,100422.84
2023-03-06T07:48:15.975Z,100421.18
2023-03-06T07:50:44.671Z,100425.39
2023-03-06T07:53:13.630Z,100430.70
2023-03-06T07:55:42.394Z,100426.27
2023-03-06T07:58:10.929Z,100428.19
2023-03-06T08:00:40.293Z,100432.00
2023-03-06T08:03:11.789Z,100436.86
2023-03-06T08:05:40.468Z,100432.42
2023-03-06T08:08:09.564Z,100433.38
2023-03-06T08:10:38.796Z,100432.58
2023-03-06T08:13:07.453Z,100430.61
2023-03-06T08:15:36.034Z,100434.27
2023-03-06T08:18:05.036Z,100429.89
2023-03-06T08:20:33.816Z,100432.80
2023-03-06T08:23:02.399Z,100435.25
2023-03-06T08:25:31.292Z,100428.79
2023-03-06T08:28:01.005Z,100430.04
2023-03-06T08:30:30.095Z,100433.04
2023-03-06T08:32:58.789Z,100429.90
2023-03-06T08:35:27.698Z,100428.52
2023-03-06T08:37:56.164Z,100430.92
2023-03-06T08:40:27.509Z,100433.29
2023-03-06T08:42:56.410Z,100432.02
2023-03-06T08:45:25.220Z,100434.50
2023-03-06T08:47:53.875Z,100442.36
2023-03-06T08:50:22.562Z,100438.98
2023-03-06T08:52:51.426Z,100442.84
2023-03-06T08:55:20.037Z,100443.73
2023-03-06T08:57:48.727Z,100445.95
2023-03-06T09:00:18.336Z,100439.38
2023-03-06T09:02:47.100Z,100441.11
2023-03-06T09:05:16.006Z,100442.04
2023-03-06T09:07:44.602Z,100443.98
2023-03-06T09:10:18.950Z,100437.45
2023-03-06T09:12:51.313Z,100442.71
2023-03-06T09:15:22.846Z,100436.02
2023-03-06T09:17:54.338Z,100434.77
2023-03-06T09:20:22.934Z,100434.52
2023-03-06T09:22:51.677Z,100438.33
2023-03-06T09:25:22.637Z,100440.65
2023-03-06T09:28:05.186Z,100447.84
2023-03-06T09:30:41.469Z,100445.97
2023-03-06T09:33:10.181Z,100450.55
2023-03-06T09:35:57.779Z,100450.92
2023-03-06T09:38:28.249Z,100457.26
2023-03-06T09:41:04.116Z,100462.48
2023-03-06T09:43:38.785Z,100462.31
2023-03-06T09:46:33.010Z,100460.06
2023-03-06T09:49:10.701Z,100461.92
2023-03-06T09:52:08.240Z,100462.29
2023-03-06T09:54:52.966Z,100462.64
2023-03-06T09:57:31.935Z,100455.15
2023-03-06T10:00:05.954Z,100459.41
2023-03-06T10:02:41.402Z,100460.30
2023-03-06T10:05:33.476Z,100461.94
2023-03-06T10:08:21.904Z,100464.91
2023-03-06T10:11:02.684Z,100468.95
2023-03-06T10:13:43.445Z,100465.31
2023-03-06T10:16:29.755Z,100466.20
2023-03-06T10:19:10.977Z,100466.27
2023-03-06T10:21:46.622Z,100466.93
2023-03-06T10:24:21.518Z,100468.66
2023-03-06T10:27:00.580Z,100466.08
2023-03-06T10:30:02.598Z,100464.66
2023-03-06T10:32:49.297Z,100460.20
2023-03-06T10:35:25.947Z,100461.75
2023-03-06T10:38:13.429Z,100455.72
2023-03-06T10:40:55.751Z,100451.23
2023-03-06T10:43:24.728Z,100454.29
2023-03-06T10:45:54.239Z,100450.90
2023-03-06T10:48:28.753Z,100446.89
2023-03-06T10:51:20.389Z,100444.93
2023-03-06T10:53:53.889Z,100442.31
2023-03-06T10:56:43.082Z,100438.21
2023-03-06T10:59:16.657Z,100432.81
2023-03-06T11:01:50.600Z,100430.81
2023-03-06T11:04:34.098Z,100428.61
2023-03-06T11:07:20.808Z,100423.46
2023-03-06T11:09:59.125Z,100413.60
2023-03-06T11:12:34.773Z,100411.94
2023-03-06T11:15:18.823Z,100413.66
2023-03-06T11:18:09.967Z,100404.45
2023-03-06T11:20:57.631Z,100408.97
2023-03-06T11:23:38.128Z,100410.64
2023-03-06T11:26:21.229Z,100412.30
2023-03-06T11:29:11.302Z,100411.14
2023-03-06T11:31:51.600Z,100408.66
2023-03-06T11:34:45.067Z,100406.14
2023-03-06T11:37:32.615Z,100412.98
2023-03-06T11:40:21.044Z,100411.74
2023-03-06T11:43:12.156Z,100412.83
2023-03-06T11:45:55.897Z,100411.39
2023-03-06T11:48:30.730Z,100403.32
2023-03-06T11:51:16.314Z,100401.12
2023-03-06T11:53:45.030Z,100398.06
2023-03-06T11:56:45.089Z,100401.61
2023-03-06T11:59:51.116Z,100399.19
2023-03-06T12:02:39.752Z,100398.50
2023-03-06T12:05:21.771Z,100395.91
2023-03-06T12:08:17.672Z,100393.19
2023-03-06T12:10:52.918Z,100392.39
2023-03-06T12:13:56.832Z,100384.28
2023-03-06T12:16:47.165Z,100383.60
2023-03-06T12:19:28.930Z,100384.33
2023-03-06T12:22:57.429Z,100382.38
2023-03-06T12:26:08.174Z,100376.95
2023-03-06T12:28:55.192Z,100383.03
2023-03-06T12:31:32.902Z,100378.25
2023-03-06T12:34:05.059Z,100373.20
2023-03-06T12:36:37.840Z,100374.64
2023-03-06T12:39:36.225Z,100374.48
2023-03-06T12:42:22.868Z,100373.33
2023-03-06T12:45:02.584Z,100374.29
2023-03-06T12:47:38.745Z,100369.26
2023-03-06T12:50:25.349Z,100364.04
2023-03-06T12:52:56.480Z,100365.83
2023-03-06T12:55:26.553Z,100365.09
2023-03-06T12:57:56.028Z,100365.75
2023-03-06T13:00:34.660Z,100365.81
2023-03-06T13:03:22.172Z,100360.66
2023-03-06T13:06:15.741Z,100362.57
2023-03-06T13:09:12.585Z,100366.52
2023-03-06T13:11:53.575Z,100366.75
2023-03-06T13:14:54.801Z,100363.84
2023-03-06T13:17:24.338Z,100363.80
2023-03-06T13:20:35.312Z,100361.49
2023-03-06T13:23:39.191Z,100358.85
2023-03-06T13:26:32.380Z,100361.53
2023-03-06T13:29:01.369Z,100359.27
2023-03-06T13:31:33.129Z,100358.48
2023-03-06T13:34:26.068Z,100361.63
2023-03-06T13:37:17.499Z,100360.03
2023-03-06T13:39:55.207Z,100361.67
2023-03-06T13:42:34.642Z,100357.92
2023-03-06T13:45:23.398Z,100357.52
2023-03-06T13:50:47.020Z,100351.36
2023-03-06T13:53:18.888Z,100343.58
2023-03-06T13:56:09.360Z,100348.23
2023-03-06T13:58:56.359Z,100345.95
2023-03-06T14:01:43.098Z,100344.23
2023-03-06T14:04:26.191Z,100338.71
2023-03-06T14:07:22.901Z,100333.48
2023-03-06T14:10:19.308Z,100337.23
2023-03-06T14:12:50.941Z,100335.17
2023-03-06T14:15:42.424Z,100333.76
2023-03-06T14:18:26.499Z,100333.16
2023-03-06T14:21:12.000Z,100331.77
2023-03-06T14:23:43.904Z,100327.23
2023-03-06T14:26:21.839Z,100333.68
2023-03-06T14:28:53.580Z,100333.11
2023-03-06T14:31:32.188Z,100330.91
2023-03-06T14:34:06.445Z,100332.23
2023-03-06T14:36:36.665Z,100333.73
2023-03-06T14:39:13.346Z,100330.45
2023-03-06T14:41:42.659Z,100328.20
2023-03-06T14:44:27.031Z,100327.42
2023-03-06T14:46:58.034Z,100321.96
2023-03-06T14:49:27.149Z,100321.54
2023-03-06T14:52:00.812Z,100327.13
2023-03-06T14:54:37.092Z,100325.19
2023-03-06T14:57:19.225Z,100317.71
2023-03-06T14:59:58.870Z,100322.16
2023-03-06T15:02:33.342Z,100326.64
2023-03-06T15:05:12.208Z,100326.41
2023-03-06T15:07:43.215Z,100329.69
2023-03-06T15:10:30.331Z,100327.15
2023-03-06T15:13:20.954Z,100329.55
2023-03-06T15:16:30.355Z,100324.99
2023-03-06T15:19:01.517Z,100327.65
2023-03-06T15:21:38.642Z,100321.38
2023-03-06T15:24:32.419Z,100326.11
2023-03-06T15:27:07.342Z,100320.44
2023-03-06T15:29:39.368Z,100326.35
2023-03-06T15:32:34.616Z,100325.33
2023-03-06T15:35:25.992Z,100325.80
2023-03-06T15:37:55.429Z,100321.70
2023-03-06T15:40:26.633Z,100322.59
2023-03-06T15:42:56.205Z,100324.89
2023-03-06T15:45:27.151Z,100324.56
2023-03-06T15:47:56.653Z,100324.31
2023-03-06T15:50:28.129Z,100326.37
2023-03-06T15:52:56.703Z,100323.03
2023-03-06T15:55:26.707Z,100330.96
2023-03-06T15:58:02.291Z,100336.11
2023-03-06T16:00:40.469Z,100331.81
2023-03-06T16:03:11.620Z,100333.38
2023-03-06T16:05:40.398Z,100333.02
2023-03-06T16:08:11.310Z,100332.61
2023-03-06T16:10:42.175Z,100335.02
2023-03-06T16:13:16.293Z,100338.72
2023-03-06T16:15:50.516Z,100337.87
2023-03-06T16:18:19.466Z,100338.71
2023-03-06T16:20:48.493Z,100339.14
2023-03-06T16:23:17.215Z,100337.96
2023-03-06T16:25:48.935Z,100344.23
2023-03-06T16:28:18.166Z,100345.46
2023-03-06T16:30:46.681Z,100343.44
2023-03-06T16:33:15.891Z,100348.74
2023-03-06T16:35:46.851Z,100347.11
2023-03-06T16:38:15.852Z,100350.87
2023-03-06T16:40:45.354Z,100354.44
2023-03-06T16:43:15.824Z,100355.57
2023-03-06T16:45:45.111Z,100353.61
2023-03-06T16:48:17.771Z,100356.77
2023-03-06T16:50:46.278Z,100356.86
2023-03-06T16:53:15.753Z,100355.20
2023-03-06T16:55:46.051Z,100354.00
2023-03-06T16:58:14.767Z,100354.33
2023-03-06T17:00:44.084Z,100348.73
2023-03-06T17:03:13.078Z,100352.02
2023-03-06T17:05:43.754Z,100347.16
2023-03-06T17:08:12.809Z,100346.77
2023-03-06T17:10:42.823Z,100342.84
2023-03-06T17:13:12.317Z,100341.39
2023-03-06T17:15:41.475Z,100343.17
2023-03-06T17:18:10.373Z,100343.52
2023-03-06T17:20:39.296Z,100342.73
2023-03-06T17:23:08.290Z,100343.89
2023-03-06T17:25:38.922Z,100341.36
2023-03-06T17:28:07.406Z,100340.20
2023-03-06T17:30:36.297Z,100340.80
2023-03-06T17:33:05.534Z,100343.73
2023-03-06T17:35:35.934Z,100346.46
2023-03-06T17:38:05.029Z,100347.83
2023-03-06T17:40:34.291Z,100348.01
2023-03-06T17:43:02.698Z,100346.61
2023-03-06T17:45:31.389Z,100348.15
2023-03-06T17:48:00.496Z,100351.58
2023-03-06T17:50:28.860Z,100348.79
2023-03-06T17:52:57.549Z,100351.66
2023-03-06T17:55:27.591Z,100350.85
2023-03-06T17:57:58.201Z,100350.90
2023-03-06T18:00:27.197Z,100353.36
2023-03-06T18:02:56.104Z,100359.55
2023-03-06T18:05:24.879Z,100362.09
2023-03-06T18:07:53.560Z,100359.71
2023-03-06T18:10:22.247Z,100362.29
2023-03-06T18:12:51.345Z,100368.55
2023-03-06T18:15:20.437Z,100365.98
2023-03-06T18:17:49.639Z,100365.61
2023-03-06T18:20:18.118Z,100362.06
2023-03-06T18:22:46.913Z,100358.48
2023-03-06T18:25:15.705Z,100363.19
2023-03-06T18:27:44.321Z,100366.58
2023-03-06T18:30:14.621Z,100369.70
2023-03-06T18:32:43.326Z,100365.27
2023-03-06T18:35:11.991Z,100366.63
2023-03-06T18:37:40.893Z,100368.80
2023-03-06T18:40:10.237Z,100372.50
2023-03-06T18:43:38.390Z,100369.64
2023-03-06T18:47:06.827Z,100378.81
2023-03-06T18:49:35.636Z,100382.02
2023-03-06T18:52:04.526Z,100378.58
2023-03-06T18:54:33.239Z,100377.48
2023-03-06T18:57:02.022Z,100379.19
2023-03-06T18:59:30.787Z,100382.27
2023-03-06T19:01:59.784Z,100380.88
2023-03-06T19:04:28.599Z,100376.46
2023-03-06T19:06:57.263Z,100376.77
2023-03-06T19:09:25.918Z,100377.79
2023-03-06T19:11:54.992Z,100375.10
2023-03-06T19:14:23.539Z,100377.52
2023-03-06T19:16:52.755Z,100378.79
2023-03-06T19:19:21.466Z,100385.91
2023-03-06T19:21:49.996Z,100383.27
2023-03-06T19:24:18.893Z,100384.65
2023-03-06T19:26:49.113Z,100378.54
2023-03-06T19:29:17.697Z,100381.23
2023-03-06T19:31:48.730Z,100376.04
2023-03-06T19:34:17.737Z,100376.99
2023-03-06T19:36:46.643Z,100375.84
2023-03-06T19:39:16.318Z,100371.46
2023-03-06T19:41:46.722Z,100371.31
2023-03-06T19:44:16.496Z,100373.11
2023-03-06T19:46:45.128Z,100370.71
2023-03-06T19:49:17.065Z,100369.77
2023-03-06T19:51:46.121Z,100369.55
2023-03-06T19:54:14.917Z,100367.41
2023-03-06T19:56:43.600Z,100364.83
2023-03-06T19:59:12.695Z,100359.04
2023-03-06T20:01:41.522Z,100359.77
2023-03-06T20:04:10.626Z,100363.58
2023-03-06T20:06:40.455Z,100363.84
2023-03-06T20:10:08.671Z,100359.59
2023-03-06T20:13:40.955Z,100358.39
2023-03-06T20:16:13.500Z,100356.40
2023-03-06T20:18:42.692Z,100356.42
2023-03-06T20:21:11.353Z,100353.64
2023-03-06T20:23:40.500Z,100355.63
2023-03-06T20:26:15.263Z,100350.75
2023-03-06T20:28:44.120Z,100352.64
2023-03-06T20:31:23.429Z,100349.93
2023-03-06T20:33:53.966Z,100353.58
2023-03-06T20:36:29.225Z,100350.23
2023-03-06T20:39:00.880Z,100345.88
2023-03-06T20:41:31.383Z,100339.38
2023-03-06T20:44:02.090Z,100336.41
2023-03-06T20:46:32.173Z,100337.41
2023-03-06T20:49:01.674Z,100336.94
2023-03-06T20:51:33.454Z,100332.45
2023-03-06T20:54:02.902Z,100333.39
2023-03-06T20:56:34.327Z,100334.51
2023-03-06T20:59:03.801Z,100331.18
2023-03-06T21:01:35.337Z,100338.05
2023-03-06T21:04:05.332Z,100335.06
2023-03-06T21:06:33.952Z,100330.98
2023-03-06T21:09:04.168Z,100330.41
2023-03-06T21:11:34.516Z,100332.89
2023-03-06T21:14:03.280Z,100331.79
2023-03-06T21:16:32.247Z,100327.48
2023-03-06T21:19:01.662Z,100322.92
2023-03-06T21:21:33.211Z,100321.78
2023-03-06T21:24:02.668Z,100313.92
2023-03-06T21:26:34.003Z,100312.23
2023-03-06T21:29:03.958Z,100307.25
2023-03-06T21:31:33.896Z,100303.09
2023-03-06T21:34:04.627Z,100309.50
2023-03-06T21:36:34.473Z,100312.80
2023-03-06T21:39:06.564Z,100311.30
2023-03-06T21:41:35.395Z,100311.50
2023-03-06T21:44:06.258Z,100307.86
2023-03-06T21:46:35.380Z,100308.48
2023-03-06T21:49:05.508Z,100311.48
2023-03-06T21:51:34.453Z,100299.84
2023-03-06T21:54:04.278Z,100298.20
2023-03-06T21:56:33.830Z,100302.52
2023-03-06T21:59:02.284Z,100311.29
2023-03-06T22:01:31.350Z,100309.30
2023-03-06T22:04:00.628Z,100305.73
2023-03-06T22:06:31.013Z,100310.95
2023-03-06T22:09:00.826Z,100313.00
2023-03-06T22:11:31.609Z,100301.11
2023-03-06T22:14:00.320Z,100296.90
2023-03-06T22:16:29.218Z,100297.59
2023-03-06T22:18:58.025Z,100296.91
2023-03-06T22:21:26.720Z,100306.01
2023-03-06T22:23:58.646Z,100302.16
2023-03-06T22:26:28.368Z,100297.17
2023-03-06T22:28:57.483Z,100289.06
2023-03-06T22:31:29.005Z,100296.67
2023-03-06T22:34:00.268Z,100290.55
2023-03-06T22:36:33.593Z,100289.70
2023-03-06T22:39:04.444Z,100282.91
2023-03-06T22:41:32.990Z,100282.71
2023-03-06T22:44:02.559Z,100275.11
2023-03-06T22:46:32.814Z,100274.14
2023-03-06T22:49:02.521Z,100279.34
2023-03-06T22:51:31.415Z,100289.48
2023-03-06T22:54:00.121Z,100294.52
2023-03-06T22:56:28.991Z,100292.70
2023-03-06T22:58:58.292Z,100298.27
2023-03-06T23:01:30.266Z,100302.15
2023-03-06T23:04:02.419Z,100305.78
2023-03-06T23:06:36.719Z,100303.13
2023-03-06T23:09:07.366Z,100302.35
2023-03-06T23:11:55.010Z,100303.55
2023-03-06T23:14:42.663Z,100301.13
2023-03-06T23:17:30.121Z,100300.67
2023-03-06T23:20:17.904Z,100292.98
2023-03-06T23:23:05.436Z,100280.79
2023-03-06T23:25:43.925Z,100275.47
2023-03-06T23:28:12.984Z,100279.39
2023-03-06T23:30:42.370Z,100275.71
2023-03-06T23:33:11.748Z,100279.47
2023-03-06T23:35:40.580Z,100276.05
2023-03-06T23:38:09.124Z,100276.20
2023-03-06T23:40:39.120Z,100274.90
2023-03-06T23:43:08.039Z,100265.68
2023-03-06T23:45:36.935Z,100259.59
2023-03-06T23:48:08.247Z,100256.98
2023-03-06T23:50:39.950Z,100250.56
2023-03-06T23:53:08.620Z,100247.48
2023-03-06T23:55:41.885Z,100243.41
2023-03-06T23:58:11.488Z,100239.42
